Time;durP1;ratioP1;P1;durP2;ratioP2;P2;SDS_P1;SDS_P2;PMS_P1;PMS_P2;Temp;Humidity;BMP_temperature;BMP_pressure;BME280_temperature;BME280_humidity;BME280_pressure;Samples;Min_cycle;Max_cycle;Signal;HPM_P1;HPM_P2
2021/03/29 00:01:38;;;;;;;4.93;2.17;;;9.80;99.90;;;;;;4967106;28;20236;-71
2021/03/29 00:04:05;;;;;;;3.13;2.40;;;9.80;99.90;;;;;;4958144;28;20213;-71
2021/03/29 00:06:35;;;;;;;7.87;2.63;;;9.70;99.90;;;;;;4964421;28;20205;-70
2021/03/29 00:09:02;;;;;;;4.33;2.47;;;9.80;99.90;;;;;;4956732;28;20192;-71
2021/03/29 00:11:29;;;;;;;5.27;2.70;;;9.70;99.90;;;;;;4964501;28;20600;-71
2021/03/29 00:13:58;;;;;;;3.87;2.50;;;9.70;99.90;;;;;;4962758;28;20230;-70
2021/03/29 00:16:24;;;;;;;2.37;1.80;;;9.70;99.90;;;;;;4963612;28;20205;-71
2021/03/29 00:18:52;;;;;;;4.50;2.17;;;9.70;99.90;;;;;;4956608;28;20205;-71
2021/03/29 00:21:19;;;;;;;4.03;2.10;;;9.80;99.90;;;;;;4966138;28;20200;-71
2021/03/29 00:23:46;;;;;;;6.63;2.77;;;9.80;99.90;;;;;;4953178;28;20294;-71
2021/03/29 00:26:13;;;;;;;4.30;2.37;;;9.70;99.90;;;;;;4960315;28;20200;-70
2021/03/29 00:28:39;;;;;;;6.43;2.20;;;9.80;99.90;;;;;;4952500;28;20209;-70
2021/03/29 00:31:09;;;;;;;3.20;1.90;;;9.70;99.90;;;;;;4963960;28;20752;-70
2021/03/29 00:33:38;;;;;;;5.37;2.33;;;9.80;99.90;;;;;;4952290;28;20225;-71
2021/03/29 00:36:07;;;;;;;6.53;2.33;;;9.80;99.90;;;;;;4961850;28;20286;-70
2021/03/29 00:38:34;;;;;;;5.73;2.30;;;9.80;99.90;;;;;;4955266;28;20579;-70
2021/03/29 00:41:12;;;;;;;4.53;2.60;;;9.80;99.90;;;;;;4954734;28;20193;-71
2021/03/29 00:43:41;;;;;;;7.63;2.40;;;9.70;99.90;;;;;;4964416;28;20212;-70
2021/03/29 00:46:09;;;;;;;8.77;2.70;;;9.70;99.90;;;;;;4971767;28;20584;-71
2021/03/29 00:48:37;;;;;;;2.93;1.87;;;9.70;99.90;;;;;;4973391;28;20597;-70
2021/03/29 00:51:10;;;;;;;5.50;2.40;;;9.70;99.90;;;;;;4969891;28;20789;-71
2021/03/29 00:53:38;;;;;;;2.63;1.73;;;9.70;99.90;;;;;;4958904;28;20202;-71
2021/03/29 00:56:06;;;;;;;3.80;2.10;;;9.70;99.90;;;;;;4968261;28;20185;-69
2021/03/29 00:58:33;;;;;;;4.97;2.67;;;9.70;99.90;;;;;;4973100;28;20208;-70
2021/03/29 01:01:05;;;;;;;3.27;2.60;;;9.70;99.90;;;;;;4970282;28;20212;-70
2021/03/29 01:03:33;;;;;;;4.20;2.20;;;9.70;99.90;;;;;;4972967;28;20316;-72
2021/03/29 01:06:04;;;;;;;2.53;1.80;;;9.70;99.90;;;;;;4966518;28;20681;-70
2021/03/29 01:08:34;;;;;;;3.10;2.00;;;9.70;99.90;;;;;;4971316;28;20236;-71
2021/03/29 01:11:03;;;;;;;5.33;2.30;;;9.70;99.90;;;;;;4969200;28;20287;-71
2021/03/29 01:13:32;;;;;;;3.27;1.63;;;9.70;99.90;;;;;;4969372;28;20280;-69
2021/03/29 01:16:02;;;;;;;4.47;2.10;;;9.70;99.90;;;;;;4959723;28;20197;-70
2021/03/29 01:18:29;;;;;;;2.37;1.70;;;9.70;99.90;;;;;;4967359;28;20706;-69
2021/03/29 01:21:21;;;;;;;4.53;2.23;;;9.80;99.90;;;;;;4968941;28;20201;-72
2021/03/29 01:23:50;;;;;;;6.10;2.20;;;9.80;99.90;;;;;;4964440;28;20219;-71
2021/03/29 01:26:31;;;;;;;3.20;2.13;;;9.80;99.90;;;;;;4956867;28;20252;-71
2021/03/29 01:28:58;;;;;;;5.03;2.50;;;9.80;99.90;;;;;;4960509;28;20289;-69
2021/03/29 01:31:24;;;;;;;6.07;2.50;;;9.80;99.90;;;;;;4966763;28;20223;-70
2021/03/29 01:33:52;;;;;;;6.17;3.00;;;9.80;99.90;;;;;;4963553;28;20285;-70
2021/03/29 01:36:20;;;;;;;6.00;2.60;;;9.80;99.90;;;;;;4964345;28;20671;-69
2021/03/29 01:38:47;;;;;;;4.63;2.50;;;9.80;99.90;;;;;;4954517;28;20277;-69
2021/03/29 01:41:15;;;;;;;4.20;2.10;;;9.80;99.90;;;;;;4960368;28;20712;-69
2021/03/29 01:43:44;;;;;;;4.13;2.27;;;9.80;99.90;;;;;;4966898;28;20200;-70
2021/03/29 01:46:12;;;;;;;3.83;2.10;;;9.80;99.90;;;;;;4975113;28;20264;-70
2021/03/29 01:48:38;;;;;;;2.83;2.10;;;9.80;99.90;;;;;;4973779;28;20312;-70
2021/03/29 01:51:06;;;;;;;6.60;1.93;;;9.80;99.90;;;;;;4971302;28;20222;-69
2021/03/29 01:53:33;;;;;;;3.33;1.83;;;9.80;99.90;;;;;;4970176;28;20198;-70
2021/03/29 01:56:00;;;;;;;1.87;1.70;;;9.80;99.90;;;;;;4975602;28;20208;-70
2021/03/29 01:58:27;;;;;;;2.60;1.60;;;9.90;99.90;;;;;;4978341;28;20196;-70
2021/03/29 02:00:57;;;;;;;1.73;1.63;;;9.80;99.90;;;;;;4974832;28;20237;-70
2021/03/29 02:03:24;;;;;;;2.33;1.50;;;9.90;99.90;;;;;;4973545;28;20199;-70
2021/03/29 02:05:51;;;;;;;5.60;2.00;;;9.90;99.90;;;;;;4967923;28;20220;-70
2021/03/29 02:08:19;;;;;;;5.20;2.10;;;9.90;99.90;;;;;;4970540;28;20728;-70
2021/03/29 02:10:47;;;;;;;4.30;2.10;;;9.90;99.90;;;;;;4965408;28;20293;-70
2021/03/29 02:13:15;;;;;;;3.47;1.83;;;9.90;99.90;;;;;;4959842;28;20207;-70
2021/03/29 02:15:43;;;;;;;3.27;2.40;;;9.90;99.90;;;;;;4957802;28;20261;-70
2021/03/29 02:18:14;;;;;;;3.43;1.80;;;9.90;99.90;;;;;;4964795;28;20201;-70
2021/03/29 02:20:41;;;;;;;2.47;1.93;;;9.90;99.90;;;;;;4962704;28;20292;-70
2021/03/29 02:23:09;;;;;;;3.77;2.00;;;9.90;99.90;;;;;;4966662;28;20261;-70
2021/03/29 02:25:36;;;;;;;3.93;1.90;;;9.90;99.90;;;;;;4956741;28;20216;-71
2021/03/29 02:28:05;;;;;;;3.53;2.07;;;9.90;99.90;;;;;;4965189;28;20281;-72
2021/03/29 02:30:35;;;;;;;3.00;1.80;;;9.90;99.90;;;;;;4960129;28;20331;-69
2021/03/29 02:33:03;;;;;;;2.20;1.63;;;9.90;99.90;;;;;;4962663;28;20211;-70
2021/03/29 02:35:31;;;;;;;2.83;1.53;;;9.90;99.90;;;;;;4961021;28;20214;-69
2021/03/29 02:37:59;;;;;;;3.77;1.93;;;10.00;99.90;;;;;;4961577;28;20202;-71
2021/03/29 02:40:27;;;;;;;4.37;2.20;;;10.00;99.90;;;;;;4958701;28;20584;-70
2021/03/29 02:42:56;;;;;;;3.77;1.73;;;10.00;99.90;;;;;;4958419;28;20267;-70
2021/03/29 02:45:25;;;;;;;2.97;1.67;;;10.00;99.90;;;;;;4972702;28;20288;-70
2021/03/29 02:47:55;;;;;;;2.40;1.60;;;10.00;99.90;;;;;;4966363;28;20230;-70
2021/03/29 02:50:24;;;;;;;4.03;1.87;;;9.90;99.90;;;;;;4950722;28;20194;-71
2021/03/29 02:52:54;;;;;;;3.93;2.27;;;9.90;99.90;;;;;;4960277;28;20208;-71
2021/03/29 02:55:22;;;;;;;3.97;2.00;;;9.90;99.90;;;;;;4947913;28;20282;-71
2021/03/29 02:57:52;;;;;;;3.70;1.70;;;9.90;99.90;;;;;;4947588;29;20212;-70
2021/03/29 03:00:20;;;;;;;3.70;1.97;;;10.00;99.90;;;;;;4959312;28;20208;-71
2021/03/29 03:02:48;;;;;;;2.10;1.90;;;9.90;99.90;;;;;;4959040;28;20201;-70
2021/03/29 03:05:15;;;;;;;3.13;2.10;;;9.90;99.90;;;;;;4957912;28;20650;-70
2021/03/29 03:07:42;;;;;;;4.63;2.00;;;9.90;99.90;;;;;;4954261;28;20280;-70
2021/03/29 03:10:12;;;;;;;2.83;1.73;;;9.90;99.90;;;;;;4960897;28;20226;-70
2021/03/29 03:12:41;;;;;;;4.20;2.63;;;9.90;99.90;;;;;;4955780;28;20205;-71
2021/03/29 03:15:11;;;;;;;3.57;2.30;;;9.80;99.90;;;;;;4958811;28;20204;-71
2021/03/29 03:17:37;;;;;;;4.10;2.37;;;9.80;99.90;;;;;;4970676;28;20205;-71
2021/03/29 03:20:07;;;;;;;4.03;2.13;;;9.80;99.90;;;;;;4954912;28;20204;-70
2021/03/29 03:22:34;;;;;;;3.97;2.00;;;9.80;99.90;;;;;;4969133;28;20678;-70
2021/03/29 03:25:01;;;;;;;2.10;1.90;;;9.70;99.90;;;;;;4948377;28;20218;-70
2021/03/29 03:27:28;;;;;;;1.97;1.77;;;9.70;99.90;;;;;;4951892;28;20233;-70
2021/03/29 03:29:54;;;;;;;5.77;3.07;;;9.70;99.90;;;;;;4960291;28;20251;-70
2021/03/29 03:32:21;;;;;;;4.63;2.37;;;9.60;99.90;;;;;;4961778;28;20283;-70
2021/03/29 03:34:47;;;;;;;3.40;2.30;;;9.70;99.90;;;;;;4954622;28;20213;-70
2021/03/29 03:37:17;;;;;;;4.17;2.17;;;9.70;99.90;;;;;;4957837;28;20219;-71
2021/03/29 03:39:45;;;;;;;7.60;3.33;;;9.70;99.90;;;;;;4953095;28;20208;-71
2021/03/29 03:42:14;;;;;;;6.70;2.67;;;9.70;99.90;;;;;;4953870;28;20650;-71
2021/03/29 03:44:41;;;;;;;5.60;3.00;;;9.70;99.90;;;;;;4960352;28;20202;-71
2021/03/29 03:47:11;;;;;;;7.10;3.33;;;9.60;99.90;;;;;;4960496;28;20212;-71
2021/03/29 03:49:40;;;;;;;7.13;3.17;;;9.60;99.90;;;;;;4966301;28;20201;-71
2021/03/29 03:52:07;;;;;;;4.60;2.80;;;9.60;99.90;;;;;;4963891;28;20209;-71
2021/03/29 03:54:35;;;;;;;10.37;4.00;;;9.60;99.90;;;;;;4963623;28;20201;-71
2021/03/29 03:57:02;;;;;;;8.53;2.77;;;9.60;99.90;;;;;;4968725;28;20297;-70
2021/03/29 03:59:28;;;;;;;6.30;2.67;;;9.60;99.90;;;;;;4963240;28;20300;-70
2021/03/29 04:02:03;;;;;;;7.60;3.07;;;9.60;99.90;;;;;;4966434;28;20295;-71
2021/03/29 04:04:29;;;;;;;11.20;3.93;;;9.60;99.90;;;;;;4966048;28;20200;-71
2021/03/29 04:06:57;;;;;;;10.27;3.40;;;9.60;99.90;;;;;;4964768;28;20200;-71
2021/03/29 04:09:31;;;;;;;11.50;3.80;;;9.60;99.90;;;;;;4959376;28;20200;-71
2021/03/29 04:11:58;;;;;;;13.83;3.47;;;9.60;99.90;;;;;;4950964;28;20288;-71
2021/03/29 04:14:24;;;;;;;12.50;4.17;;;9.50;99.90;;;;;;4958072;28;20199;-71
2021/03/29 04:16:50;;;;;;;12.03;3.83;;;9.60;99.90;;;;;;4953953;28;20296;-71
2021/03/29 04:19:18;;;;;;;12.87;4.70;;;9.60;99.90;;;;;;4957128;28;20241;-71
2021/03/29 04:21:44;;;;;;;15.70;4.23;;;9.60;99.90;;;;;;4956806;28;20269;-71
2021/03/29 04:24:12;;;;;;;11.63;3.87;;;9.50;99.90;;;;;;4944666;28;20190;-71
2021/03/29 04:26:41;;;;;;;8.73;3.10;;;9.60;99.90;;;;;;4954951;28;20202;-71
2021/03/29 04:29:08;;;;;;;10.53;3.33;;;9.60;99.90;;;;;;4958652;28;20666;-70
2021/03/29 04:31:34;;;;;;;12.00;4.00;;;9.60;99.90;;;;;;4961867;28;20635;-70
2021/03/29 04:34:02;;;;;;;11.10;3.53;;;9.60;99.90;;;;;;4959908;28;20234;-70
2021/03/29 04:36:29;;;;;;;13.07;3.53;;;9.70;99.90;;;;;;4960718;28;20208;-70
2021/03/29 04:38:55;;;;;;;7.07;2.57;;;9.70;99.90;;;;;;4958258;28;20284;-71
2021/03/29 04:41:22;;;;;;;14.10;3.70;;;9.70;99.90;;;;;;4957244;28;20550;-70
2021/03/29 04:43:48;;;;;;;7.47;3.00;;;9.70;99.90;;;;;;4955359;28;20570;-71
2021/03/29 04:46:15;;;;;;;9.50;3.27;;;9.70;99.90;;;;;;4968032;28;20197;-70
2021/03/29 04:48:41;;;;;;;8.40;2.97;;;9.80;99.90;;;;;;4969908;28;20205;-70
2021/03/29 04:51:08;;;;;;;7.60;2.70;;;9.80;99.90;;;;;;4967273;28;20446;-71
2021/03/29 04:53:35;;;;;;;6.07;2.53;;;9.80;99.90;;;;;;4958615;28;20278;-70
2021/03/29 04:56:02;;;;;;;5.57;2.67;;;9.80;99.90;;;;;;4963787;28;20207;-69
2021/03/29 04:58:28;;;;;;;9.07;3.80;;;9.80;99.90;;;;;;4970429;28;20255;-70
2021/03/29 05:00:55;;;;;;;8.23;3.77;;;9.70;99.90;;;;;;4965519;28;20288;-69
2021/03/29 05:03:21;;;;;;;5.50;3.20;;;9.80;99.90;;;;;;4971024;28;20287;-71
2021/03/29 05:05:48;;;;;;;5.40;3.70;;;9.80;99.90;;;;;;4967251;28;20214;-71
2021/03/29 05:08:14;;;;;;;5.33;3.43;;;9.80;99.90;;;;;;4969581;28;20209;-69
2021/03/29 05:10:42;;;;;;;4.10;3.30;;;9.80;99.90;;;;;;4961064;28;20221;-69
2021/03/29 05:13:08;;;;;;;4.77;3.27;;;9.80;99.90;;;;;;4966870;28;20208;-70
2021/03/29 05:15:35;;;;;;;6.80;3.53;;;9.90;99.90;;;;;;4958763;28;20414;-70
2021/03/29 05:18:01;;;;;;;4.10;3.27;;;9.90;99.90;;;;;;4966550;28;20281;-70
2021/03/29 05:20:28;;;;;;;6.10;3.53;;;9.90;99.90;;;;;;4954541;28;20294;-71
2021/03/29 05:22:54;;;;;;;5.70;3.30;;;10.00;99.90;;;;;;4965232;28;20275;-70
2021/03/29 05:25:21;;;;;;;3.30;2.70;;;10.00;99.90;;;;;;4943015;28;20204;-69
2021/03/29 05:27:48;;;;;;;5.20;2.77;;;10.00;99.90;;;;;;4948392;28;20350;-70
2021/03/29 05:30:16;;;;;;;2.40;1.97;;;10.10;99.90;;;;;;4941382;28;20333;-70
2021/03/29 05:32:42;;;;;;;2.63;2.40;;;10.10;99.90;;;;;;4957822;28;20312;-71
2021/03/29 05:35:09;;;;;;;2.10;1.93;;;10.20;99.90;;;;;;4952466;28;20245;-70
2021/03/29 05:37:36;;;;;;;2.93;2.63;;;10.20;99.90;;;;;;4965411;28;20205;-71
2021/03/29 05:40:03;;;;;;;2.30;2.10;;;10.30;99.90;;;;;;4957561;28;20203;-71
2021/03/29 05:42:31;;;;;;;1.90;1.80;;;10.30;99.90;;;;;;4953655;28;20209;-71
2021/03/29 05:45:06;;;;;;;2.07;1.87;;;10.30;99.90;;;;;;4962957;28;20337;-70
2021/03/29 05:47:33;;;;;;;2.00;1.80;;;10.30;99.90;;;;;;4972077;28;20254;-70
2021/03/29 05:50:03;;;;;;;1.70;1.60;;;10.40;99.90;;;;;;4963362;28;20250;-70
2021/03/29 05:52:30;;;;;;;2.20;2.00;;;10.50;99.90;;;;;;4961121;28;20219;-71
2021/03/29 05:54:57;;;;;;;3.30;2.60;;;10.50;99.90;;;;;;4969807;28;20226;-70
2021/03/29 05:57:24;;;;;;;2.90;1.97;;;10.60;99.90;;;;;;4952934;28;20200;-70
2021/03/29 05:59:51;;;;;;;2.30;2.10;;;10.60;99.90;;;;;;4948655;28;20198;-70
2021/03/29 06:02:29;;;;;;;2.03;1.90;;;10.60;99.90;;;;;;4960668;28;20196;-70
2021/03/29 06:04:56;;;;;;;2.43;2.20;;;10.70;99.90;;;;;;4949178;28;20211;-71
2021/03/29 06:07:31;;;;;;;2.20;2.10;;;10.70;99.90;;;;;;4957974;28;20207;-70
2021/03/29 06:10:08;;;;;;;2.20;2.00;;;10.70;99.90;;;;;;4951776;28;20363;-70
2021/03/29 06:12:43;;;;;;;1.87;1.77;;;10.70;99.90;;;;;;4956246;28;20260;-70
2021/03/29 06:15:11;;;;;;;2.50;2.00;;;10.80;99.90;;;;;;4960605;28;20222;-71
2021/03/29 06:17:39;;;;;;;2.23;2.00;;;10.80;99.90;;;;;;4952642;28;20287;-70
2021/03/29 06:20:08;;;;;;;2.87;2.00;;;10.90;99.90;;;;;;4946955;28;20201;-70
2021/03/29 06:22:35;;;;;;;1.73;1.63;;;10.90;99.90;;;;;;4945739;28;20284;-70
2021/03/29 06:25:06;;;;;;;2.50;2.30;;;11.00;99.90;;;;;;4938339;28;20201;-70
2021/03/29 06:27:38;;;;;;;3.17;2.70;;;11.00;99.90;;;;;;4944827;29;20217;-72
2021/03/29 06:30:21;;;;;;;2.53;2.33;;;11.00;99.90;;;;;;4939313;28;20266;-72
2021/03/29 06:32:57;;;;;;;3.90;2.57;;;11.00;99.90;;;;;;4951435;28;20559;-72
2021/03/29 06:35:26;;;;;;;2.57;2.30;;;11.00;99.90;;;;;;4941919;28;20232;-70
2021/03/29 06:37:52;;;;;;;4.80;3.30;;;11.00;99.90;;;;;;4934519;29;20211;-71
2021/03/29 06:40:19;;;;;;;3.23;2.93;;;11.00;99.90;;;;;;4934601;29;20599;-70
2021/03/29 06:42:45;;;;;;;2.50;2.30;;;11.00;99.90;;;;;;4939387;28;20191;-70
2021/03/29 06:45:14;;;;;;;4.53;2.53;;;11.00;99.90;;;;;;4942459;28;20721;-71
2021/03/29 06:47:41;;;;;;;2.73;2.50;;;11.00;99.90;;;;;;4943241;28;20671;-71
2021/03/29 06:50:21;;;;;;;2.93;2.33;;;11.10;99.90;;;;;;4941959;29;20217;-71
2021/03/29 06:52:48;;;;;;;3.33;2.70;;;11.10;99.90;;;;;;4940232;28;20212;-70
2021/03/29 06:55:20;;;;;;;4.30;2.83;;;11.10;99.90;;;;;;4937736;28;20221;-71
2021/03/29 06:57:58;;;;;;;3.43;2.50;;;11.20;99.90;;;;;;4937847;28;20515;-71
2021/03/29 07:00:29;;;;;;;3.47;2.53;;;11.20;99.90;;;;;;4946015;28;20220;-71
2021/03/29 07:03:00;;;;;;;3.70;2.30;;;11.30;99.90;;;;;;4949211;28;20304;-71
2021/03/29 07:05:28;;;;;;;3.87;2.37;;;11.30;99.90;;;;;;4939111;28;20273;-71
2021/03/29 07:07:54;;;;;;;2.30;2.10;;;11.30;99.90;;;;;;4937253;28;20190;-72
2021/03/29 07:10:21;;;;;;;2.20;2.00;;;11.40;99.90;;;;;;4937292;28;20200;-71
2021/03/29 07:12:48;;;;;;;3.37;2.80;;;11.40;99.90;;;;;;4942861;28;20235;-71
2021/03/29 07:15:16;;;;;;;3.27;2.10;;;11.50;99.90;;;;;;4935066;28;20609;-70
2021/03/29 07:17:43;;;;;;;2.27;1.97;;;11.50;99.90;;;;;;4944297;28;20209;-71
2021/03/29 07:20:12;;;;;;;2.57;2.00;;;11.50;99.90;;;;;;4951579;28;20214;-73
2021/03/29 07:22:41;;;;;;;2.40;2.10;;;11.50;99.90;;;;;;4934515;28;20185;-71
2021/03/29 07:25:09;;;;;;;3.97;2.40;;;11.60;99.90;;;;;;4934569;28;20286;-72
2021/03/29 07:27:42;;;;;;;4.23;2.10;;;11.70;99.90;;;;;;4942709;28;20534;-71
2021/03/29 07:30:11;;;;;;;3.83;2.43;;;11.70;99.90;;;;;;4936923;28;20720;-71
2021/03/29 07:32:38;;;;;;;2.00;1.90;;;11.80;99.90;;;;;;4942409;28;20345;-72
2021/03/29 07:35:06;;;;;;;2.33;2.00;;;11.80;99.90;;;;;;4946784;28;20216;-72
2021/03/29 07:37:40;;;;;;;1.97;1.77;;;11.90;99.90;;;;;;4956058;28;20672;-72
2021/03/29 07:40:30;;;;;;;2.37;2.13;;;11.90;99.90;;;;;;4937434;28;20212;-71
2021/03/29 07:43:06;;;;;;;3.23;2.23;;;11.90;99.90;;;;;;4950122;28;20194;-71
2021/03/29 07:45:41;;;;;;;3.20;1.97;;;11.90;99.90;;;;;;4960929;28;20189;-73
2021/03/29 07:48:08;;;;;;;4.03;2.23;;;11.90;99.90;;;;;;4950165;28;20208;-71
2021/03/29 07:50:49;;;;;;;3.67;2.70;;;11.90;99.90;;;;;;4952244;28;20664;-71
2021/03/29 07:53:19;;;;;;;2.13;2.03;;;11.90;99.90;;;;;;4947738;28;20284;-72
2021/03/29 07:55:49;;;;;;;2.10;2.00;;;12.00;99.90;;;;;;4940466;28;20204;-70
2021/03/29 07:58:16;;;;;;;3.70;2.20;;;12.00;99.90;;;;;;4943716;28;20196;-71
2021/03/29 08:00:49;;;;;;;3.47;2.23;;;12.00;99.90;;;;;;4951684;28;20302;-72
2021/03/29 08:03:42;;;;;;;2.67;2.00;;;12.00;99.90;;;;;;4941712;28;20274;-72
2021/03/29 08:06:43;;;;;;;5.10;2.53;;;12.10;99.90;;;;;;4944056;28;20256;-71
2021/03/29 08:09:13;;;;;;;3.43;2.10;;;12.20;99.90;;;;;;4941589;28;20275;-70
2021/03/29 08:12:05;;;;;;;1.90;1.80;;;12.20;99.90;;;;;;4936699;28;20313;-71
2021/03/29 08:14:41;;;;;;;2.47;2.13;;;12.30;99.90;;;;;;4944116;28;20553;-70
2021/03/29 08:17:53;;;;;;;2.00;1.80;;;12.30;99.90;;;;;;4939461;28;20254;-70
2021/03/29 08:20:44;;;;;;;3.40;2.43;;;12.40;99.90;;;;;;4943801;28;20765;-72
2021/03/29 08:23:32;;;;;;;1.73;1.60;;;12.50;99.90;;;;;;4848395;29;20201;-71
2021/03/29 08:26:19;;;;;;;4.27;2.30;;;12.60;99.90;;;;;;4850397;29;20341;-71
2021/03/29 08:29:27;;;;;;;1.80;1.67;;;12.60;99.90;;;;;;4866112;29;20215;-72
2021/03/29 08:32:15;;;;;;;2.73;1.83;;;12.70;99.90;;;;;;4855137;29;20217;-72
2021/03/29 08:34:48;;;;;;;2.37;2.17;;;12.80;99.90;;;;;;4858739;29;20828;-71
2021/03/29 08:37:16;;;;;;;3.07;2.10;;;12.80;99.90;;;;;;4868489;29;20205;-70
2021/03/29 08:39:44;;;;;;;3.37;2.10;;;12.80;99.90;;;;;;4873387;29;20287;-70
2021/03/29 08:42:12;;;;;;;3.10;1.90;;;12.80;99.90;;;;;;4870377;29;20593;-72
2021/03/29 08:44:40;;;;;;;2.40;1.80;;;12.90;99.90;;;;;;4869962;29;20303;-71
2021/03/29 08:47:09;;;;;;;3.17;2.03;;;12.90;99.90;;;;;;4873549;29;20795;-72
2021/03/29 08:49:37;;;;;;;2.63;2.00;;;13.00;99.90;;;;;;4871358;29;20195;-72
2021/03/29 08:52:04;;;;;;;2.07;1.80;;;13.00;99.90;;;;;;4875847;29;20343;-72
2021/03/29 08:54:31;;;;;;;4.40;2.03;;;13.10;99.90;;;;;;4868377;29;20219;-72
2021/03/29 08:57:03;;;;;;;1.87;1.60;;;13.20;99.90;;;;;;4869195;29;20204;-72
2021/03/29 08:59:31;;;;;;;2.27;1.80;;;13.20;99.90;;;;;;4875448;28;20650;-71
2021/03/29 09:01:58;;;;;;;2.07;1.70;;;13.30;99.90;;;;;;4948885;28;20227;-71
2021/03/29 09:04:24;;;;;;;3.37;1.80;;;13.40;99.90;;;;;;4947258;28;20209;-71
2021/03/29 09:06:56;;;;;;;2.00;1.90;;;13.40;99.90;;;;;;4954553;28;20251;-71
2021/03/29 09:09:24;;;;;;;1.73;1.63;;;13.40;99.90;;;;;;4937362;28;20209;-72
2021/03/29 09:11:52;;;;;;;2.20;1.60;;;13.50;99.90;;;;;;4957919;28;20481;-71
2021/03/29 09:14:20;;;;;;;2.33;1.70;;;13.60;99.90;;;;;;4950817;28;20207;-70
2021/03/29 09:16:56;;;;;;;2.47;1.80;;;13.70;99.90;;;;;;4944296;28;20292;-70
2021/03/29 09:19:23;;;;;;;2.60;2.10;;;13.90;99.90;;;;;;4953851;28;20256;-70
2021/03/29 09:21:54;;;;;;;2.17;1.90;;;14.10;99.90;;;;;;4943658;28;20202;-70
2021/03/29 09:24:24;;;;;;;2.07;1.97;;;14.20;99.90;;;;;;4941621;28;20225;-70
2021/03/29 09:27:02;;;;;;;1.70;1.60;;;14.40;99.90;;;;;;4948408;28;20567;-69
2021/03/29 09:29:33;;;;;;;4.40;2.23;;;14.60;99.90;;;;;;4947486;28;20723;-68
2021/03/29 09:32:07;;;;;;;2.37;2.10;;;14.80;99.90;;;;;;4951106;28;20215;-70
2021/03/29 09:34:34;;;;;;;2.30;2.10;;;14.90;99.90;;;;;;4941005;28;20233;-70
2021/03/29 09:37:01;;;;;;;2.00;1.90;;;15.00;99.90;;;;;;4950085;28;20540;-71
2021/03/29 09:39:33;;;;;;;2.30;2.03;;;15.30;99.90;;;;;;4941514;28;20203;-71
2021/03/29 09:42:01;;;;;;;2.47;1.87;;;15.60;99.90;;;;;;4942321;28;20228;-70
2021/03/29 09:44:30;;;;;;;2.37;1.90;;;15.70;99.90;;;;;;4945470;28;21334;-70
2021/03/29 09:46:58;;;;;;;2.00;1.80;;;15.90;99.90;;;;;;4947101;28;20258;-71
2021/03/29 09:49:25;;;;;;;1.90;1.73;;;16.00;99.90;;;;;;4949340;28;20222;-71
2021/03/29 09:52:02;;;;;;;2.00;1.90;;;16.20;99.90;;;;;;4938124;28;20310;-71
2021/03/29 09:54:31;;;;;;;3.63;2.53;;;16.30;99.90;;;;;;4943744;28;20210;-72
2021/03/29 09:57:10;;;;;;;2.17;1.97;;;16.60;99.90;;;;;;4947041;28;20725;-71
2021/03/29 09:59:39;;;;;;;3.23;2.00;;;16.60;99.90;;;;;;4943099;28;20246;-71
2021/03/29 10:02:11;;;;;;;3.67;2.10;;;16.50;99.90;;;;;;4957097;28;20197;-71
2021/03/29 10:04:38;;;;;;;1.83;1.73;;;16.40;99.90;;;;;;4949330;28;20663;-70
2021/03/29 10:07:13;;;;;;;1.90;1.60;;;16.20;99.90;;;;;;4942552;28;20227;-70
2021/03/29 10:09:40;;;;;;;1.40;1.30;;;16.20;99.90;;;;;;4956816;28;20199;-71
2021/03/29 10:12:08;;;;;;;1.60;1.50;;;16.30;99.90;;;;;;4936435;28;20226;-70
2021/03/29 10:14:36;;;;;;;2.10;1.50;;;16.50;99.90;;;;;;4944113;28;20288;-70
2021/03/29 10:17:13;;;;;;;1.40;1.30;;;16.70;99.90;;;;;;4958273;28;20279;-71
2021/03/29 10:19:39;;;;;;;2.20;2.10;;;16.70;99.90;;;;;;4946640;28;20200;-71
2021/03/29 10:22:09;;;;;;;2.13;1.80;;;16.70;99.90;;;;;;4941719;28;20284;-71
2021/03/29 10:24:37;;;;;;;1.77;1.67;;;16.70;99.90;;;;;;4937847;28;20264;-71
2021/03/29 10:27:06;;;;;;;2.27;1.90;;;16.70;99.90;;;;;;4958287;28;20546;-71
2021/03/29 10:29:38;;;;;;;1.83;1.60;;;16.90;99.90;;;;;;4952919;28;20677;-72
2021/03/29 10:32:10;;;;;;;3.10;2.03;;;17.00;99.90;;;;;;4942492;28;20208;-71
2021/03/29 10:34:38;;;;;;;3.00;1.90;;;17.20;99.90;;;;;;4935690;28;20209;-71
2021/03/29 10:37:07;;;;;;;2.80;2.20;;;17.30;99.90;;;;;;4950356;28;20685;-71
2021/03/29 10:39:33;;;;;;;4.97;2.57;;;17.40;99.90;;;;;;4931782;28;20662;-72
2021/03/29 10:42:00;;;;;;;2.60;2.10;;;17.40;99.90;;;;;;4939769;28;20277;-70
2021/03/29 10:44:26;;;;;;;2.50;2.13;;;17.50;99.90;;;;;;4945030;28;20201;-71
2021/03/29 10:46:54;;;;;;;2.20;2.00;;;17.50;99.90;;;;;;4941555;28;20889;-71
2021/03/29 10:49:20;;;;;;;2.23;1.90;;;17.40;99.90;;;;;;4954840;28;20224;-71
2021/03/29 10:51:47;;;;;;;4.43;2.60;;;17.40;99.90;;;;;;4936710;28;20257;-72
2021/03/29 10:54:13;;;;;;;3.37;2.70;;;17.40;99.90;;;;;;4943824;28;20244;-71
2021/03/29 10:56:40;;;;;;;3.90;2.27;;;17.30;99.90;;;;;;4944952;28;20292;-72
2021/03/29 10:59:07;;;;;;;1.97;1.87;;;17.30;99.90;;;;;;4943905;28;20197;-71
2021/03/29 11:01:33;;;;;;;2.80;1.77;;;17.20;99.90;;;;;;4949464;28;20213;-72
2021/03/29 11:04:01;;;;;;;2.83;1.90;;;17.30;99.90;;;;;;4939771;28;20209;-71
2021/03/29 11:06:27;;;;;;;2.97;2.10;;;17.20;99.90;;;;;;4942418;28;20273;-71
2021/03/29 11:08:54;;;;;;;3.37;2.30;;;17.20;99.90;;;;;;4936923;28;20211;-72
2021/03/29 11:11:20;;;;;;;2.33;2.10;;;17.20;99.90;;;;;;4935653;28;20201;-72
2021/03/29 11:13:47;;;;;;;1.97;1.70;;;17.10;99.90;;;;;;4941153;28;20274;-71
2021/03/29 11:16:15;;;;;;;3.43;1.73;;;17.00;99.90;;;;;;4946454;28;20221;-71
2021/03/29 11:18:41;;;;;;;4.13;1.80;;;17.00;99.90;;;;;;4936736;29;20209;-71
2021/03/29 11:21:11;;;;;;;1.80;1.70;;;16.90;99.90;;;;;;4945156;28;20210;-72
2021/03/29 11:23:37;;;;;;;3.13;2.00;;;16.80;99.90;;;;;;4938822;28;20289;-70
2021/03/29 11:26:03;;;;;;;2.40;1.60;;;16.80;99.90;;;;;;4946928;28;20262;-71
2021/03/29 11:28:30;;;;;;;4.40;2.07;;;16.60;99.90;;;;;;4951559;28;20208;-71
2021/03/29 11:30:57;;;;;;;2.57;1.93;;;16.50;99.90;;;;;;4935743;28;20590;-72
2021/03/29 11:33:24;;;;;;;2.87;1.40;;;16.50;99.90;;;;;;4942716;28;20231;-71
2021/03/29 11:35:50;;;;;;;2.60;1.80;;;16.40;99.90;;;;;;4942211;28;20205;-70
2021/03/29 11:38:18;;;;;;;5.53;1.83;;;16.30;99.90;;;;;;4947144;28;20205;-71
2021/03/29 11:40:44;;;;;;;1.97;1.53;;;16.30;99.90;;;;;;4933046;28;20229;-72
2021/03/29 11:43:11;;;;;;;2.30;1.53;;;16.30;99.90;;;;;;4954331;28;20744;-71
2021/03/29 11:45:37;;;;;;;4.17;2.03;;;16.20;99.90;;;;;;4953798;28;20211;-71
2021/03/29 11:48:05;;;;;;;4.00;2.03;;;16.20;99.90;;;;;;4936445;28;20202;-70
2021/03/29 11:50:31;;;;;;;2.53;2.17;;;16.10;99.90;;;;;;4945014;28;20275;-71
2021/03/29 11:52:58;;;;;;;1.53;1.43;;;16.00;99.90;;;;;;4943318;28;20311;-71
2021/03/29 11:55:26;;;;;;;2.73;1.67;;;15.90;99.90;;;;;;4932339;28;20201;-71
2021/03/29 11:57:54;;;;;;;3.00;1.90;;;15.90;99.90;;;;;;4940874;28;20211;-71
2021/03/29 12:00:25;;;;;;;2.17;1.67;;;15.80;99.90;;;;;;4946082;28;20189;-71
2021/03/29 12:02:59;;;;;;;3.57;2.00;;;15.80;99.90;;;;;;4939161;28;20724;-71
2021/03/29 12:05:28;;;;;;;2.97;2.00;;;15.70;99.90;;;;;;4938078;28;20215;-71
2021/03/29 12:13:31;;;;;;;2.17;1.60;;;15.50;99.90;;;;;;4848871;29;20230;-71
2021/03/29 12:15:58;;;;;;;2.00;1.60;;;15.40;99.90;;;;;;4868703;29;20214;-71
2021/03/29 12:18:34;;;;;;;3.10;1.90;;;15.30;99.90;;;;;;4866339;29;20932;-71
2021/03/29 12:21:02;;;;;;;3.73;2.13;;;15.30;99.90;;;;;;4863777;29;21154;-71
2021/03/29 12:23:31;;;;;;;2.43;2.10;;;15.30;99.90;;;;;;4850688;29;20211;-72
2021/03/29 12:25:59;;;;;;;1.63;1.43;;;15.30;99.90;;;;;;4868005;29;20202;-72
2021/03/29 12:28:28;;;;;;;3.73;1.60;;;15.20;99.90;;;;;;4855098;29;20259;-73
2021/03/29 12:30:55;;;;;;;2.10;1.77;;;15.10;99.90;;;;;;4858088;29;20239;-72
2021/03/29 12:33:22;;;;;;;2.93;2.00;;;15.10;99.90;;;;;;4863131;29;20704;-70
2021/03/29 12:35:49;;;;;;;2.33;1.83;;;15.10;99.90;;;;;;4869979;29;20296;-71
2021/03/29 12:38:16;;;;;;;3.57;1.97;;;15.10;99.90;;;;;;4859675;29;20207;-71
2021/03/29 12:40:45;;;;;;;2.10;1.60;;;15.00;99.90;;;;;;4840995;29;20206;-71
2021/03/29 12:43:15;;;;;;;2.00;1.40;;;15.00;99.90;;;;;;4847612;29;20227;-70
2021/03/29 12:45:42;;;;;;;2.83;1.40;;;15.00;99.90;;;;;;4876301;29;20211;-77
2021/03/29 12:48:12;;;;;;;25.83;5.77;;;14.90;99.90;;;;;;4928391;28;20235;-75
2021/03/29 12:50:39;;;;;;;30.37;6.57;;;14.90;99.90;;;;;;4949948;28;20202;-77
2021/03/29 12:53:05;;;;;;;11.67;3.47;;;14.90;99.90;;;;;;4937892;28;20224;-76
2021/03/29 12:55:33;;;;;;;4.80;2.20;;;14.90;99.90;;;;;;4954809;28;21424;-77
2021/03/29 12:57:59;;;;;;;2.10;1.67;;;14.90;99.90;;;;;;4953537;28;20775;-77
2021/03/29 13:00:29;;;;;;;1.67;1.50;;;14.90;99.90;;;;;;4963168;28;20727;-76
2021/03/29 13:02:57;;;;;;;1.70;1.60;;;14.80;99.90;;;;;;4947711;28;20298;-76
2021/03/29 13:05:32;;;;;;;1.30;1.20;;;14.80;99.90;;;;;;4948109;28;20303;-78
2021/03/29 13:08:03;;;;;;;2.47;1.70;;;14.90;99.90;;;;;;4943461;28;20369;-77